THZ weather

Tahoua Airport
Tahoua, Tahoua Region, Niger

Public forecast

Using degrees Celsius for public forecast. Weather courtesy of forecast.io.

METAR (pilot weather report)

Report is more than 2 hours old.

Retrieved 2019/04/20 12:00 UTC (3 hours ago):

DRRT 201200Z 06010KT 6000 NSC 41/05 Q1011

TAF (pilot weather forecast)

Closest forecast is Sadiq Abubakar III International Airport, 117.7 nm (218.0 km) S. Retrieved 2019/04/20 12:21 UTC (2 hours ago):

TAF DNSO 200950Z 2012/2118 20008KT 5000 HZ BECMG 2018/2020 7000 NSW TEMPO 2106/2112 5000 HZ